createdAt,value
2018-08-31T00:01:46.366Z,19.33
2018-08-31T00:06:39.678Z,19.28
2018-08-31T00:10:18.173Z,19.16
2018-08-31T00:12:47.714Z,19.08
2018-08-31T00:15:16.692Z,19.04
2018-08-31T00:17:45.644Z,19.01
2018-08-31T00:20:15.359Z,19.00
2018-08-31T00:22:44.415Z,18.95
2018-08-31T00:26:24.451Z,18.95
2018-08-31T00:29:43.808Z,18.89
2018-08-31T00:33:26.184Z,18.82
2018-08-31T00:36:39.565Z,18.75
2018-08-31T00:40:34.896Z,18.70
2018-08-31T00:44:26.883Z,18.69
2018-08-31T00:46:55.886Z,18.75
2018-08-31T00:49:24.942Z,18.78
2018-08-31T00:51:54.025Z,18.79
2018-08-31T00:54:23.077Z,18.80
2018-08-31T00:56:52.016Z,18.83
2018-08-31T00:59:21.089Z,18.84
2018-08-31T01:01:50.092Z,18.83
2018-08-31T01:04:19.177Z,18.84
2018-08-31T01:06:48.233Z,18.81
2018-08-31T01:09:17.245Z,18.84
2018-08-31T01:11:46.331Z,18.83
2018-08-31T01:14:15.332Z,18.84
2018-08-31T01:16:44.321Z,18.84
2018-08-31T01:19:13.321Z,18.85
2018-08-31T01:21:42.381Z,18.85
2018-08-31T01:24:11.357Z,18.83
2018-08-31T01:26:40.381Z,18.83
2018-08-31T01:29:09.328Z,18.83
2018-08-31T01:31:38.377Z,18.81
2018-08-31T01:34:07.372Z,18.79
2018-08-31T01:36:36.320Z,18.76
2018-08-31T01:39:06.484Z,18.72
2018-08-31T01:41:35.545Z,18.66
2018-08-31T01:44:04.570Z,18.61
2018-08-31T01:46:33.645Z,18.58
2018-08-31T01:49:02.804Z,18.59
2018-08-31T01:51:31.759Z,18.62
2018-08-31T01:54:00.761Z,18.57
2018-08-31T01:56:29.837Z,18.54
2018-08-31T01:58:58.860Z,18.51
2018-08-31T02:01:27.852Z,18.48
2018-08-31T02:03:59.238Z,18.45
2018-08-31T02:06:28.208Z,18.44
2018-08-31T02:09:18.160Z,18.41
2018-08-31T02:11:48.074Z,18.36
2018-08-31T02:14:17.015Z,18.30
2018-08-31T02:16:46.076Z,18.27
2018-08-31T02:19:15.194Z,18.24
2018-08-31T02:21:44.135Z,18.20
2018-08-31T02:24:13.313Z,18.13
2018-08-31T02:26:42.268Z,18.12
2018-08-31T02:29:11.286Z,18.11
2018-08-31T02:31:40.251Z,18.08
2018-08-31T02:34:09.379Z,18.02
2018-08-31T02:36:38.388Z,17.99
2018-08-31T02:39:07.974Z,17.97
2018-08-31T02:41:37.014Z,17.94
2018-08-31T02:44:06.024Z,17.94
2018-08-31T02:46:35.000Z,18.00
2018-08-31T02:49:04.014Z,17.97
2018-08-31T02:51:33.056Z,17.99
2018-08-31T02:54:02.079Z,17.97
2018-08-31T02:56:31.094Z,17.96
2018-08-31T02:59:00.113Z,17.94
2018-08-31T03:01:29.052Z,17.91
2018-08-31T03:03:58.033Z,17.83
2018-08-31T03:06:26.987Z,17.80
2018-08-31T03:08:56.060Z,17.76
2018-08-31T03:11:25.455Z,17.73
2018-08-31T03:13:54.454Z,17.70
2018-08-31T03:16:23.470Z,17.69
2018-08-31T03:18:52.428Z,17.66
2018-08-31T03:21:21.541Z,17.63
2018-08-31T03:23:50.564Z,17.60
2018-08-31T03:26:19.511Z,17.58
2018-08-31T03:28:48.637Z,17.55
2018-08-31T03:31:17.652Z,17.48
2018-08-31T03:33:46.673Z,17.42
2018-08-31T03:36:15.693Z,17.41
2018-08-31T03:38:44.695Z,17.38
2018-08-31T03:41:13.809Z,17.34
2018-08-31T03:43:42.937Z,17.33
2018-08-31T03:46:12.012Z,17.30
2018-08-31T03:48:41.044Z,17.31
2018-08-31T03:51:11.781Z,17.35
2018-08-31T03:53:40.812Z,17.38
2018-08-31T03:56:09.816Z,17.44
2018-08-31T03:58:38.796Z,17.53
2018-08-31T04:01:07.861Z,17.60
2018-08-31T04:03:36.936Z,17.66
2018-08-31T04:06:05.937Z,17.74
2018-08-31T04:08:34.920Z,17.82
2018-08-31T04:11:03.924Z,17.93
2018-08-31T04:13:32.946Z,18.01
2018-08-31T04:16:01.969Z,18.09
2018-08-31T04:18:31.000Z,18.19
2018-08-31T04:21:00.011Z,18.29
2018-08-31T04:23:29.037Z,18.40
2018-08-31T04:25:58.194Z,18.51
2018-08-31T04:28:27.221Z,18.67
2018-08-31T04:30:56.240Z,18.82
2018-08-31T04:33:25.274Z,19.10
2018-08-31T04:35:54.300Z,19.54
2018-08-31T04:38:23.397Z,20.19
2018-08-31T04:40:52.562Z,21.12
2018-08-31T04:43:21.596Z,22.15
2018-08-31T04:45:50.621Z,23.01
2018-08-31T04:48:19.701Z,23.80
2018-08-31T04:50:48.869Z,24.60
2018-08-31T04:53:17.908Z,24.97
2018-08-31T04:55:47.033Z,25.52
2018-08-31T04:58:16.067Z,26.21
2018-08-31T05:00:45.091Z,26.79
2018-08-31T05:03:14.207Z,27.25
2018-08-31T05:05:43.189Z,27.98
2018-08-31T05:08:12.164Z,28.35
2018-08-31T05:10:41.156Z,28.71
2018-08-31T05:13:10.187Z,29.35
2018-08-31T05:15:39.359Z,29.75
2018-08-31T05:18:08.319Z,30.03
2018-08-31T05:20:37.315Z,30.06
2018-08-31T05:23:06.390Z,30.01
2018-08-31T05:25:35.382Z,29.81
2018-08-31T05:28:04.339Z,29.87
2018-08-31T05:30:33.288Z,30.10
2018-08-31T05:33:02.260Z,30.15
2018-08-31T05:35:31.322Z,29.77
2018-08-31T05:38:00.358Z,28.67
2018-08-31T05:40:29.385Z,27.87
2018-08-31T05:42:58.480Z,27.01
2018-08-31T05:45:27.580Z,26.49
2018-08-31T05:47:56.589Z,26.42
2018-08-31T05:50:25.676Z,26.44
2018-08-31T05:52:54.756Z,26.72
2018-08-31T05:55:38.488Z,28.17
2018-08-31T05:58:07.467Z,29.40
2018-08-31T06:00:36.616Z,30.61
2018-08-31T06:03:05.584Z,30.78
2018-08-31T06:05:34.591Z,29.96
2018-08-31T06:08:03.612Z,29.07
2018-08-31T06:10:32.603Z,28.33
2018-08-31T06:13:01.688Z,28.01
2018-08-31T06:15:30.633Z,27.66
2018-08-31T06:17:59.810Z,27.45
2018-08-31T06:20:28.820Z,27.25
2018-08-31T06:22:57.836Z,27.43
2018-08-31T06:25:26.804Z,27.27
2018-08-31T06:27:55.747Z,27.22
2018-08-31T06:30:24.772Z,27.46
2018-08-31T06:32:53.748Z,27.37
2018-08-31T06:35:22.821Z,27.24
2018-08-31T06:37:51.777Z,27.28
2018-08-31T06:40:20.794Z,27.34
2018-08-31T06:42:49.772Z,27.21
2018-08-31T06:45:18.892Z,27.45
2018-08-31T06:47:47.932Z,27.48
2018-08-31T06:50:16.940Z,27.37
2018-08-31T06:52:46.031Z,27.38
2018-08-31T06:55:15.042Z,27.57
2018-08-31T06:57:44.050Z,27.57
2018-08-31T07:00:13.014Z,27.59
2018-08-31T07:02:42.035Z,27.67
2018-08-31T07:05:11.002Z,27.96
2018-08-31T07:07:40.290Z,28.18
2018-08-31T07:10:09.564Z,28.40
2018-08-31T07:12:38.576Z,28.53
2018-08-31T07:15:08.164Z,28.43
2018-08-31T07:17:37.308Z,28.54
2018-08-31T07:20:06.505Z,29.13
2018-08-31T07:22:35.521Z,29.05
2018-08-31T07:25:04.536Z,29.28
2018-08-31T07:27:33.679Z,29.24
2018-08-31T07:30:02.637Z,29.17
2018-08-31T07:32:31.707Z,29.40
2018-08-31T07:35:00.772Z,29.39
2018-08-31T07:37:29.736Z,29.59
2018-08-31T07:39:58.713Z,29.73
2018-08-31T07:42:27.737Z,29.79
2018-08-31T07:44:56.809Z,29.87
2018-08-31T07:47:25.760Z,30.05
2018-08-31T07:49:54.824Z,30.11
2018-08-31T07:52:23.855Z,30.15
2018-08-31T07:54:52.935Z,30.04
2018-08-31T07:57:22.024Z,30.11
2018-08-31T07:59:51.037Z,30.11
2018-08-31T08:02:20.183Z,30.18
2018-08-31T08:04:49.132Z,30.34
2018-08-31T08:07:18.091Z,30.61
2018-08-31T08:09:47.216Z,30.61
2018-08-31T08:12:16.237Z,30.62
2018-08-31T08:14:45.261Z,30.86
2018-08-31T08:17:14.244Z,30.83
2018-08-31T08:19:43.356Z,30.96
2018-08-31T08:22:12.309Z,30.88
2018-08-31T08:24:41.264Z,30.95
2018-08-31T08:27:10.370Z,31.11
2018-08-31T08:29:39.350Z,31.10
2018-08-31T08:32:08.368Z,31.26
2018-08-31T08:34:37.338Z,31.33
2018-08-31T08:37:06.417Z,31.59
2018-08-31T08:39:35.497Z,31.74
2018-08-31T08:42:04.510Z,31.73
2018-08-31T08:44:33.538Z,31.87
2018-08-31T08:47:02.500Z,31.89
2018-08-31T08:49:31.476Z,31.98
2018-08-31T08:52:00.484Z,32.14
2018-08-31T08:54:29.588Z,32.18
2018-08-31T08:56:58.613Z,32.20
2018-08-31T08:59:27.561Z,32.31
2018-08-31T09:01:56.588Z,32.39
2018-08-31T09:04:25.600Z,32.38
2018-08-31T09:06:54.612Z,32.35
2018-08-31T09:09:23.584Z,32.45
2018-08-31T09:11:52.673Z,32.57
2018-08-31T09:14:21.676Z,32.69
2018-08-31T09:16:50.685Z,32.67
2018-08-31T09:19:19.712Z,32.86
2018-08-31T09:21:48.741Z,32.90
2018-08-31T09:24:17.725Z,33.04
2018-08-31T09:26:46.684Z,33.13
2018-08-31T09:29:18.216Z,33.51
2018-08-31T09:31:47.276Z,33.56
2018-08-31T09:34:16.295Z,33.27
2018-08-31T09:36:45.317Z,33.34
2018-08-31T09:39:14.379Z,33.19
2018-08-31T09:41:43.493Z,33.28
2018-08-31T09:44:12.509Z,33.42
2018-08-31T09:46:41.485Z,33.43
2018-08-31T09:49:10.504Z,33.93
2018-08-31T09:51:39.651Z,34.04
2018-08-31T09:54:08.641Z,34.14
2018-08-31T09:56:37.664Z,33.97
2018-08-31T09:59:06.624Z,34.06
2018-08-31T10:01:36.702Z,34.05
2018-08-31T10:04:05.706Z,34.21
2018-08-31T10:06:35.204Z,34.37
2018-08-31T10:09:05.039Z,34.70
2018-08-31T10:11:34.010Z,34.88
2018-08-31T10:14:03.033Z,35.03
2018-08-31T10:16:31.978Z,34.97
2018-08-31T10:19:00.924Z,34.84
2018-08-31T10:21:29.937Z,34.78
2018-08-31T10:23:58.904Z,34.84
2018-08-31T10:26:27.925Z,34.79
2018-08-31T10:28:56.977Z,34.89
2018-08-31T10:31:26.004Z,34.92
2018-08-31T10:33:54.948Z,35.38
2018-08-31T10:36:24.015Z,35.68
2018-08-31T10:38:52.991Z,35.89
2018-08-31T10:41:22.042Z,36.00
2018-08-31T10:43:51.078Z,36.18
2018-08-31T10:46:20.154Z,36.34
2018-08-31T10:48:49.170Z,36.51
2018-08-31T10:51:18.192Z,36.46
2018-08-31T10:53:47.144Z,36.47
2018-08-31T10:56:16.132Z,36.85
2018-08-31T10:58:45.093Z,37.47
2018-08-31T11:01:14.051Z,38.27
2018-08-31T11:03:42.988Z,39.46
2018-08-31T11:06:12.069Z,39.73
2018-08-31T11:08:41.033Z,39.87
2018-08-31T11:11:10.150Z,39.91
2018-08-31T11:13:39.316Z,40.30
2018-08-31T11:16:08.345Z,40.83
2018-08-31T11:18:37.320Z,41.43
2018-08-31T11:21:06.267Z,41.63
2018-08-31T11:23:35.487Z,41.66
2018-08-31T11:26:04.509Z,41.47
2018-08-31T11:28:33.517Z,41.88
2018-08-31T11:31:02.564Z,41.93
2018-08-31T11:33:31.574Z,42.24
2018-08-31T11:36:00.602Z,42.34
2018-08-31T11:38:29.565Z,42.62
2018-08-31T11:40:58.628Z,42.60
2018-08-31T11:43:27.700Z,42.30
2018-08-31T11:45:56.719Z,42.04
2018-08-31T11:48:25.757Z,41.99
2018-08-31T11:50:54.767Z,42.16
2018-08-31T11:53:23.762Z,42.57
2018-08-31T11:55:52.716Z,42.66
2018-08-31T11:58:21.739Z,42.20
2018-08-31T12:00:50.783Z,42.00
2018-08-31T12:03:19.856Z,42.37
2018-08-31T12:05:48.823Z,41.90
2018-08-31T12:08:17.895Z,42.26
2018-08-31T12:10:46.972Z,42.97
2018-08-31T12:13:15.936Z,43.30
2018-08-31T12:15:44.964Z,43.13
2018-08-31T12:18:13.968Z,43.31
2018-08-31T12:20:42.929Z,43.29
2018-08-31T12:23:11.917Z,43.08
2018-08-31T12:25:40.893Z,43.29
2018-08-31T12:28:09.869Z,43.59
2018-08-31T12:30:38.860Z,43.27
2018-08-31T12:33:07.905Z,42.99
2018-08-31T12:35:37.034Z,43.44
2018-08-31T12:38:06.124Z,43.86
2018-08-31T12:40:35.124Z,43.79
2018-08-31T12:43:04.079Z,44.10
2018-08-31T12:45:33.107Z,43.47
2018-08-31T12:48:02.165Z,43.24
2018-08-31T12:50:31.204Z,43.78
2018-08-31T12:53:00.228Z,43.66
2018-08-31T12:55:29.241Z,43.23
2018-08-31T12:57:58.254Z,41.74
2018-08-31T13:00:27.196Z,40.43
2018-08-31T13:02:56.350Z,39.43
2018-08-31T13:05:25.292Z,38.35
2018-08-31T13:07:54.230Z,37.78
2018-08-31T13:10:23.205Z,37.21
2018-08-31T13:12:52.229Z,36.53
2018-08-31T13:15:21.263Z,35.95
2018-08-31T13:17:50.273Z,35.60
2018-08-31T13:20:19.540Z,35.11
2018-08-31T13:22:48.604Z,34.73
2018-08-31T13:25:17.838Z,34.40
2018-08-31T13:27:46.885Z,34.25
2018-08-31T13:30:15.884Z,34.12
2018-08-31T13:32:44.927Z,33.92
2018-08-31T13:35:13.988Z,33.70
2018-08-31T13:37:43.079Z,33.66
2018-08-31T13:40:12.048Z,33.52
2018-08-31T13:42:41.074Z,33.44
2018-08-31T13:45:10.041Z,33.32
2018-08-31T13:47:39.034Z,33.19
2018-08-31T13:50:08.100Z,33.06
2018-08-31T13:52:37.149Z,32.99
2018-08-31T13:55:06.191Z,33.00
2018-08-31T13:57:35.145Z,32.91
2018-08-31T14:00:04.269Z,32.74
2018-08-31T14:02:33.284Z,32.61
2018-08-31T14:05:02.329Z,32.52
2018-08-31T14:07:31.398Z,32.52
2018-08-31T14:10:00.474Z,32.55
2018-08-31T14:12:29.603Z,32.49
2018-08-31T14:14:58.609Z,32.49
2018-08-31T14:17:27.600Z,32.38
2018-08-31T14:19:56.606Z,32.31
2018-08-31T14:22:25.630Z,32.28
2018-08-31T14:24:54.806Z,32.22
2018-08-31T14:27:23.959Z,32.06
2018-08-31T14:29:53.200Z,32.06
2018-08-31T14:32:22.193Z,31.96
2018-08-31T14:34:51.166Z,31.91
2018-08-31T14:37:20.196Z,31.86
2018-08-31T14:39:49.293Z,31.77
2018-08-31T14:42:18.360Z,31.74
2018-08-31T14:44:47.360Z,31.62
2018-08-31T14:47:16.448Z,31.53
2018-08-31T14:49:45.627Z,31.40
2018-08-31T14:52:14.592Z,31.36
2018-08-31T14:54:43.636Z,31.29
2018-08-31T14:57:12.712Z,31.23
2018-08-31T14:59:41.684Z,31.24
2018-08-31T15:02:10.650Z,31.16
2018-08-31T15:04:39.684Z,31.04
2018-08-31T15:07:08.690Z,30.99
2018-08-31T15:09:37.828Z,30.89
2018-08-31T15:12:06.897Z,30.79
2018-08-31T15:14:35.908Z,30.73
2018-08-31T15:17:05.128Z,30.66
2018-08-31T15:19:34.189Z,30.61
2018-08-31T15:22:03.364Z,30.55
2018-08-31T15:24:32.316Z,30.49
2018-08-31T15:27:01.281Z,30.44
2018-08-31T15:29:30.265Z,30.39
2018-08-31T15:31:59.348Z,30.32
2018-08-31T15:34:28.368Z,30.27
2018-08-31T15:36:57.406Z,30.18
2018-08-31T15:39:26.480Z,30.20
2018-08-31T15:41:55.585Z,30.15
2018-08-31T15:44:24.800Z,30.10
2018-08-31T15:46:53.821Z,30.03
2018-08-31T15:49:22.802Z,29.93
2018-08-31T15:51:51.776Z,29.82
2018-08-31T15:54:20.788Z,29.72
2018-08-31T15:56:49.822Z,29.63
2018-08-31T15:59:18.795Z,29.53
2018-08-31T16:01:47.831Z,29.43
2018-08-31T16:04:16.858Z,29.26
2018-08-31T16:06:45.840Z,29.09
2018-08-31T16:09:14.933Z,28.96
2018-08-31T16:11:43.896Z,28.76
2018-08-31T16:14:12.936Z,28.60
2018-08-31T16:16:41.876Z,28.44
2018-08-31T16:19:10.881Z,28.22
2018-08-31T16:21:39.899Z,28.06
2018-08-31T16:24:08.898Z,27.88
2018-08-31T16:26:37.924Z,27.71
2018-08-31T16:29:07.086Z,27.50
2018-08-31T16:31:36.123Z,27.35
2018-08-31T16:34:05.216Z,27.18
2018-08-31T16:36:34.197Z,27.01
2018-08-31T16:39:03.462Z,26.84
2018-08-31T16:41:32.436Z,26.63
2018-08-31T16:44:01.446Z,26.43
2018-08-31T16:46:30.391Z,26.24
2018-08-31T16:48:59.488Z,26.04
2018-08-31T16:51:28.462Z,25.83
2018-08-31T16:53:57.470Z,25.64
2018-08-31T16:56:26.431Z,25.44
2018-08-31T16:58:55.429Z,25.27
2018-08-31T17:01:24.405Z,25.09
2018-08-31T17:03:53.403Z,24.90
2018-08-31T17:06:22.429Z,24.73
2018-08-31T17:08:51.376Z,24.57
2018-08-31T17:11:20.489Z,24.42
2018-08-31T17:13:49.432Z,24.27
2018-08-31T17:16:18.446Z,24.11
2018-08-31T17:18:47.420Z,24.01
2018-08-31T17:21:16.472Z,23.89
2018-08-31T17:23:45.456Z,23.80
2018-08-31T17:28:21.437Z,23.67
2018-08-31T17:30:54.597Z,23.48
2018-08-31T17:33:28.641Z,23.40
2018-08-31T17:36:02.801Z,23.32
2018-08-31T17:38:31.913Z,23.29
2018-08-31T17:41:00.927Z,23.26
2018-08-31T17:43:29.975Z,23.23
2018-08-31T17:45:59.617Z,23.22
2018-08-31T17:48:28.716Z,23.19
2018-08-31T17:50:57.822Z,23.17
2018-08-31T17:53:26.810Z,23.13
2018-08-31T17:55:55.769Z,23.07
2018-08-31T17:58:24.817Z,23.03
2018-08-31T18:00:53.857Z,22.95
2018-08-31T18:03:22.839Z,22.90
2018-08-31T18:05:51.873Z,22.84
2018-08-31T18:08:20.970Z,22.81
2018-08-31T18:10:49.960Z,22.80
2018-08-31T18:13:18.920Z,22.78
2018-08-31T18:15:48.027Z,22.74
2018-08-31T18:18:17.085Z,22.66
2018-08-31T18:20:46.181Z,22.60
2018-08-31T18:23:15.241Z,22.52
2018-08-31T18:25:44.378Z,22.49
2018-08-31T18:28:13.408Z,22.46
2018-08-31T18:30:42.432Z,22.40
2018-08-31T18:33:11.587Z,22.33
2018-08-31T18:35:40.745Z,22.28
2018-08-31T18:38:09.771Z,22.23
2018-08-31T18:40:38.898Z,22.20
2018-08-31T18:43:07.972Z,22.15
2018-08-31T18:45:37.020Z,22.13
2018-08-31T18:48:06.057Z,22.11
2018-08-31T18:50:35.048Z,22.08
2018-08-31T18:53:04.133Z,22.07
2018-08-31T18:55:33.212Z,22.04
2018-08-31T18:58:02.359Z,22.03
2018-08-31T19:00:31.400Z,22.03
2018-08-31T19:03:00.351Z,21.99
2018-08-31T19:05:29.466Z,21.98
2018-08-31T19:07:58.467Z,21.98
2018-08-31T19:10:27.502Z,21.96
2018-08-31T19:12:56.915Z,21.93
2018-08-31T19:15:25.896Z,21.92
2018-08-31T19:17:54.990Z,21.90
2018-08-31T19:20:24.014Z,21.93
2018-08-31T19:22:52.980Z,21.94
2018-08-31T19:25:21.974Z,21.96
2018-08-31T19:27:50.948Z,21.95
2018-08-31T19:30:19.968Z,21.96
2018-08-31T19:32:48.936Z,21.93
2018-08-31T19:35:18.070Z,21.92
2018-08-31T19:37:47.107Z,21.93
2018-08-31T19:40:16.060Z,21.90
2018-08-31T19:42:45.029Z,21.89
2018-08-31T19:45:14.098Z,21.86
2018-08-31T19:47:43.106Z,21.83
2018-08-31T19:50:12.156Z,21.80
2018-08-31T19:52:41.232Z,21.78
2018-08-31T19:55:10.320Z,21.75
2018-08-31T19:57:39.300Z,21.68
2018-08-31T20:00:08.489Z,21.66
2018-08-31T20:02:37.460Z,21.58
2018-08-31T20:05:06.598Z,21.48
2018-08-31T20:07:35.584Z,21.43
2018-08-31T20:10:04.605Z,21.40
2018-08-31T20:12:33.632Z,21.41
2018-08-31T20:15:02.601Z,21.39
2018-08-31T20:17:31.620Z,21.39
2018-08-31T20:20:00.632Z,21.39
2018-08-31T20:22:29.732Z,21.37
2018-08-31T20:24:58.700Z,21.36
2018-08-31T20:27:27.705Z,21.34
2018-08-31T20:29:56.680Z,21.30
2018-08-31T20:32:25.632Z,21.30
2018-08-31T20:34:54.662Z,21.31
2018-08-31T20:37:23.628Z,21.31
2018-08-31T20:39:52.755Z,21.33
2018-08-31T20:42:21.837Z,21.34
2018-08-31T20:44:50.880Z,21.37
2018-08-31T20:47:19.920Z,21.37
2018-08-31T20:49:48.855Z,21.33
2018-08-31T20:52:17.894Z,21.29
2018-08-31T20:54:46.921Z,21.24
2018-08-31T20:57:16.004Z,21.21
2018-08-31T20:59:45.021Z,21.13
2018-08-31T21:02:14.060Z,21.07
2018-08-31T21:04:43.101Z,21.15
2018-08-31T21:07:12.063Z,21.20
2018-08-31T21:09:41.100Z,21.21
2018-08-31T21:12:10.188Z,21.23
2018-08-31T21:14:39.276Z,21.22
2018-08-31T21:17:08.248Z,21.24
2018-08-31T21:19:37.260Z,21.24
2018-08-31T21:22:06.224Z,21.25
2018-08-31T21:24:35.236Z,21.26
2018-08-31T21:27:04.258Z,21.23
2018-08-31T21:29:33.273Z,21.21
2018-08-31T21:32:02.379Z,21.18
2018-08-31T21:34:31.325Z,21.13
2018-08-31T21:37:00.268Z,20.77
2018-08-31T21:39:29.271Z,21.02
2018-08-31T21:41:58.272Z,20.95
2018-08-31T21:44:27.223Z,20.93
2018-08-31T21:46:56.246Z,20.90
2018-08-31T21:49:25.337Z,20.85
2018-08-31T21:51:54.284Z,20.82
2018-08-31T21:54:23.421Z,20.80
2018-08-31T21:56:52.445Z,20.82
2018-08-31T21:59:21.454Z,20.76
2018-08-31T22:01:55.461Z,20.74
2018-08-31T22:04:25.089Z,20.71
2018-08-31T22:06:54.221Z,20.67
2018-08-31T22:09:23.179Z,20.64
2018-08-31T22:11:52.211Z,20.60
2018-08-31T22:14:21.233Z,20.60
2018-08-31T22:16:50.317Z,20.61
2018-08-31T22:19:19.277Z,20.58
2018-08-31T22:21:48.320Z,20.52
2018-08-31T22:24:17.433Z,20.43
2018-08-31T22:26:46.375Z,20.38
2018-08-31T22:29:15.404Z,20.32
2018-08-31T22:31:44.360Z,20.23
2018-08-31T22:34:13.376Z,20.19
2018-08-31T22:36:42.324Z,20.13
2018-08-31T22:39:11.407Z,20.09
2018-08-31T22:41:40.432Z,20.06
2018-08-31T22:44:09.408Z,20.05
2018-08-31T22:46:38.420Z,20.03
2018-08-31T22:49:07.380Z,20.01
2018-08-31T22:51:36.471Z,19.98
2018-08-31T22:54:05.450Z,20.06
2018-08-31T22:56:34.401Z,20.10
2018-08-31T22:59:03.427Z,20.08
2018-08-31T23:01:32.396Z,20.06
2018-08-31T23:04:01.369Z,20.06
2018-08-31T23:06:30.388Z,20.04
2018-08-31T23:08:59.528Z,20.02
2018-08-31T23:11:28.541Z,19.98
2018-08-31T23:13:57.617Z,19.97
2018-08-31T23:16:26.555Z,19.95
2018-08-31T23:18:55.561Z,19.92
2018-08-31T23:21:24.543Z,19.88
2018-08-31T23:23:53.559Z,19.89
2018-08-31T23:26:22.594Z,19.87
2018-08-31T23:28:51.555Z,19.87
2018-08-31T23:31:20.652Z,19.85
2018-08-31T23:33:49.700Z,19.86
2018-08-31T23:36:18.647Z,19.88
2018-08-31T23:38:47.667Z,19.87
2018-08-31T23:41:16.917Z,19.85
2018-08-31T23:43:46.795Z,19.81
2018-08-31T23:46:15.812Z,19.78
2018-08-31T23:48:44.844Z,19.75
2018-08-31T23:51:13.793Z,19.73
2018-08-31T23:53:42.785Z,19.70
2018-08-31T23:56:11.824Z,19.67
2018-08-31T23:58:40.816Z,19.52
